EHWO/WOE METAR and TAF weather

Enter ICAO airport designator
Station Type Date Time Source
EHWO METAR 2018/07/21 11:25 UTC NOAA

EHWO 211125Z AUTO VRB09KT 9999 NCD 25/14 Q1012 BLU


Station Type Date Time Source
EHWO Decoded METAR 2018/07/21 11:25 UTC NOAA

Woensdrecht, Netherlands (EHWO) 51-27N 004-20E 17M
Jul 21, 2018 - 07:25 AM EDT / 2018.07.21 1125 UTC
Wind: Variable at 10 MPH (9 KT):0
Visibility: greater than 7 mile(s):0
Temperature: 77 F (25 C)
Dew Point: 57 F (14 C)
Relative Humidity: 50%
Pressure (altimeter): 29.88 in. Hg (1012 hPa)
ob: EHWO 211125Z AUTO VRB09KT 9999 NCD 25/14 Q1012 BLU
cycle: 11

Station Type Date Time Source
EHWO TAF 2018/07/20 13:15 UTC NOAA

TAF TAF EHWO 201255Z 2013/2101 27010KT CAVOK


Example: see airport list